TimeEST,TemperatureF,Dew PointF,Humidity,Sea Level PressureIn,VisibilityMPH,Wind Direction,Wind SpeedMPH,Gust SpeedMPH,PrecipitationIn,Events,Conditions,WindDirDegrees,DateUTC
12:19 AM,46.4,42.8,87,29.78,2.5,SE,6.9,-,N/A,,Mostly Cloudy,130,2013-12-04 05:19:00
12:37 AM,46.4,42.8,87,29.77,3.0,SSE,8.1,-,N/A,,Partly Cloudy,150,2013-12-04 05:37:00
12:53 AM,46.0,43.0,89,29.78,3.0,SE,9.2,-,N/A,,Clear,140,2013-12-04 05:53:00
1:25 AM,46.4,42.8,87,29.77,2.5,SE,10.4,-,N/A,,Clear,140,2013-12-04 06:25:00
1:53 AM,46.0,43.0,89,29.79,3.0,SSE,6.9,-,N/A,,Mostly Cloudy,160,2013-12-04 06:53:00
2:53 AM,46.0,43.0,89,29.81,3.0,SE,4.6,-,N/A,,Mostly Cloudy,130,2013-12-04 07:53:00
3:00 AM,46.4,42.8,87,29.80,2.5,SE,4.6,-,N/A,,Mostly Cloudy,140,2013-12-04 08:00:00
3:08 AM,46.4,42.8,87,29.80,3.0,SE,4.6,-,N/A,,Mostly Cloudy,130,2013-12-04 08:08:00
3:26 AM,46.4,42.8,87,29.80,2.5,SE,3.5,-,N/A,,Mostly Cloudy,140,2013-12-04 08:26:00
3:53 AM,46.0,43.0,89,29.80,2.5,SE,4.6,-,N/A,,Overcast,140,2013-12-04 08:53:00
4:27 AM,46.4,44.6,93,29.79,3.0,SSE,4.6,-,N/A,,Overcast,150,2013-12-04 09:27:00
4:53 AM,46.9,44.1,90,29.81,3.0,SSE,3.5,-,N/A,,Overcast,150,2013-12-04 09:53:00
5:19 AM,46.4,44.6,93,29.80,3.0,SSE,6.9,-,N/A,,Overcast,150,2013-12-04 10:19:00
5:53 AM,46.9,44.1,90,29.81,3.0,SE,6.9,-,N/A,,Overcast,140,2013-12-04 10:53:00
6:29 AM,46.4,44.6,93,29.79,3.0,SE,4.6,-,N/A,,Overcast,140,2013-12-04 11:29:00
6:40 AM,46.4,44.6,93,29.80,3.0,SE,5.8,-,N/A,,Overcast,140,2013-12-04 11:40:00
6:53 AM,46.9,44.1,90,29.81,3.0,SE,8.1,-,N/A,,Overcast,130,2013-12-04 11:53:00
7:27 AM,46.4,44.6,93,29.81,2.5,SE,8.1,-,N/A,,Overcast,140,2013-12-04 12:27:00
7:53 AM,46.9,45.0,93,29.82,2.0,SE,8.1,-,N/A,,Overcast,130,2013-12-04 12:53:00
8:01 AM,46.4,44.6,93,29.81,1.8,SE,8.1,-,N/A,,Overcast,130,2013-12-04 13:01:00
8:15 AM,46.4,44.6,93,29.81,0.5,SE,5.8,-,N/A,Fog,Fog,140,2013-12-04 13:15:00
8:53 AM,48.0,46.0,93,29.81,0.5,SE,9.2,-,N/A,Fog,Fog,140,2013-12-04 13:53:00
9:45 AM,48.2,46.4,93,29.78,0.8,SE,11.5,-,N/A,,Overcast,140,2013-12-04 14:45:00
9:53 AM,48.9,46.9,93,29.79,1.0,SSE,11.5,-,N/A,,Overcast,150,2013-12-04 14:53:00
10:53 AM,50.0,48.0,93,29.78,1.8,SSE,10.4,-,N/A,,Overcast,150,2013-12-04 15:53:00
11:08 AM,51.8,48.2,88,29.77,2.0,SSE,11.5,-,N/A,,Overcast,150,2013-12-04 16:08:00
11:29 AM,51.8,48.2,88,29.76,2.5,SSE,9.2,-,N/A,,Overcast,150,2013-12-04 16:29:00
11:53 AM,53.1,48.9,86,29.75,2.5,SSE,10.4,-,N/A,,Overcast,160,2013-12-04 16:53:00
12:53 PM,53.1,48.9,86,29.71,2.5,SE,9.2,-,N/A,,Overcast,140,2013-12-04 17:53:00
1:23 PM,53.6,48.2,82,29.70,3.0,SSE,11.5,18.4,N/A,,Overcast,160,2013-12-04 18:23:00
1:53 PM,53.1,48.9,86,29.69,2.5,SE,11.5,-,N/A,,Overcast,140,2013-12-04 18:53:00
2:53 PM,54.0,50.0,86,29.65,2.0,SE,13.8,-,N/A,,Overcast,140,2013-12-04 19:53:00
3:21 PM,53.6,51.8,94,29.63,1.8,SE,16.1,24.2,N/A,,Overcast,140,2013-12-04 20:21:00
3:53 PM,54.0,51.1,90,29.64,1.5,SE,11.5,-,N/A,,Overcast,140,2013-12-04 20:53:00
4:40 PM,55.4,51.8,88,29.62,2.0,SSE,15.0,-,N/A,,Overcast,150,2013-12-04 21:40:00
4:53 PM,55.0,53.1,93,29.62,2.0,SE,13.8,-,N/A,,Overcast,140,2013-12-04 21:53:00
5:27 PM,55.4,53.6,94,29.62,3.0,South,12.7,-,N/A,,Overcast,170,2013-12-04 22:27:00
5:53 PM,57.0,54.0,89,29.62,4.0,South,11.5,-,N/A,,Overcast,170,2013-12-04 22:53:00
6:29 PM,57.2,53.6,88,29.62,4.0,SSE,12.7,-,N/A,,Overcast,160,2013-12-04 23:29:00
6:53 PM,57.9,55.0,90,29.63,4.0,South,13.8,20.7,N/A,,Overcast,170,2013-12-04 23:53:00
7:35 PM,59.0,55.4,88,29.62,4.0,South,13.8,-,N/A,,Overcast,170,2013-12-05 00:35:00
7:53 PM,59.0,55.0,87,29.62,5.0,South,15.0,-,N/A,,Overcast,170,2013-12-05 00:53:00
8:53 PM,61.0,55.9,83,29.61,6.0,South,17.3,25.3,N/A,,Haze,190,2013-12-05 01:53:00
9:18 PM,60.8,55.4,82,29.61,6.0,South,17.3,-,N/A,,Haze,190,2013-12-05 02:18:00
9:53 PM,60.1,55.9,86,29.62,6.0,South,13.8,-,N/A,,Overcast,190,2013-12-05 02:53:00
10:29 PM,59.0,55.4,88,29.62,6.0,WSW,10.4,-,N/A,,Overcast,250,2013-12-05 03:29:00
10:53 PM,60.1,55.0,83,29.62,6.0,SW,15.0,-,N/A,,Haze,220,2013-12-05 03:53:00
11:53 PM,59.0,55.0,87,29.62,6.0,SSW,12.7,-,N/A,,Mostly Cloudy,210,2013-12-05 04:53:00